Weather at Israeli Center for Sport Aviation

Public forecast

Using degrees Celsius for public forecast. Weather courtesy of forecast.io.

Closest aviation weather report (METAR) to Israeli Center for Sport Aviation

Closest report is Ben Gurion International Airport, 7.3 nm (13.5 km) ENE. Retrieved 2021/10/28 10:20 UTC (1 hour ago):

LLBG 281020Z 35007KT 300V050 CAVOK 31/08 Q1013 NOSIG

Closest aviation forecast (TAF) to Israeli Center for Sport Aviation

Closest forecast is Ben Gurion International Airport, 7.3 nm (13.5 km) ENE. Retrieved 2021/10/28 06:09 UTC (5 hours ago):

TAF TAF LLBG 280505Z 2806/2906 VRB03KT CAVOK BECMG 2807/2809 34010KT BECMG 2816/2818 03005KT BECMG 2820/2822 VRB03KT TEMPO 2900/2906 15005KT TX30/2811Z TN19/2903Z